Terminal Aerodrome Forecast
Issued by NWS

Home | Current Version | Previous Version | Text Only | Print | Product List | Glossary On
Versions: 1 2 3 4 5 6 7 8 9 10 11 12
000
FTUS44 KLIX 061756
TAFMSY
TAF
KMSY 061756Z 0618/0718 14010KT P6SM SCT040 BKN100
     FM070000 13009KT P6SM SCT080
     FM071500 12008KT P6SM SCT040 BKN080=

USA.gov is the U.S. government's official web portal to all federal, state and local government web resources and services.